This is the latest recevied weather packets stored in our database for station/object 9W2YIE-13. If no packets are shown the sender has not sent any weather packets the latest 10 day(s).
| Time | Temp. | Humidity | Pressure | Rain* | Wind** | Luminosity | Snow |
|---|---|---|---|---|---|---|---|
| 1787875740 | 41.11° C | 38% | 1008 hPa | - | - | 0 W/m² | - |
| 1787874794 | 41.11° C | 37% | 1008 hPa | - | - | 0 W/m² | - |
| 1787873863 | 38.33° C | 42% | 1007 hPa | - | - | 0 W/m² | - |
| 1787872924 | 39.44° C | 40% | 1007 hPa | - | - | 0 W/m² | - |
| 1787871995 | 38.33° C | 41% | 1007 hPa | - | - | 0 W/m² | - |
| 1787871051 | 38.33° C | 41% | 1007 hPa | - | - | 0 W/m² | - |
| 1787870121 | 41.11° C | 37% | 1007 hPa | - | - | 0 W/m² | - |
| 1787869183 | 40.56° C | 38% | 1007 hPa | - | - | 0 W/m² | - |
| 1787868240 | 40.56° C | 38% | 1007 hPa | - | - | 0 W/m² | - |
| 1787867308 | 40.56° C | 38% | 1007 hPa | - | - | 0 W/m² | - |
| 1787866375 | 40° C | 39% | 1007 hPa | - | - | 0 W/m² | - |
| 1787865433 | 38.89° C | 41% | 1007 hPa | - | - | 0 W/m² | - |
| 1787864495 | 38.89° C | 41% | 1007 hPa | - | - | 0 W/m² | - |
| 1787863561 | 39.44° C | 40% | 1006 hPa | - | - | 0 W/m² | - |
| 1787862613 | 40° C | 38% | 1007 hPa | - | - | 0 W/m² | - |
| 1787861655 | 41.67° C | 36% | 1007 hPa | - | - | 0 W/m² | - |
| 1787860707 | 41.11° C | 37% | 1007 hPa | - | - | 0 W/m² | - |
| 1787859738 | 40° C | 39% | 1007 hPa | - | - | 0 W/m² | - |
| 1787858800 | 38.89° C | 40% | 1007 hPa | - | - | 0 W/m² | - |
| 1787857673 | 40° C | 39% | 1008 hPa | - | - | 0 W/m² | - |
| 1787856738 | 39.44° C | 39% | 1008 hPa | - | - | 0 W/m² | - |
| 1787855805 | 40° C | 39% | 1008 hPa | - | - | 0 W/m² | - |
| 1787854870 | 41.11° C | 37% | 1009 hPa | - | - | 0 W/m² | - |
| 1787853936 | 40.56° C | 38% | 1009 hPa | - | - | 0 W/m² | - |
| 1787853005 | 38.89° C | 41% | 1009 hPa | - | - | 0 W/m² | - |
* Rain since midnight (hover to see other rain measurements)
** Current wind speed in m/s (hover to see current wind gust speed)